sensor_id;sensor_type;location;lat;lon;timestamp;P1;durP1;ratioP1;P2;durP2;ratioP2
77384;SDS011;66443;49.122;8.346;2023-02-28T00:01:01;2.70;;;2.50;;
77384;SDS011;66443;49.122;8.346;2023-02-28T00:03:27;2.50;;;2.30;;
77384;SDS011;66443;49.122;8.346;2023-02-28T00:05:52;3.10;;;2.50;;
77384;SDS011;66443;49.122;8.346;2023-02-28T00:08:17;4.80;;;2.60;;
77384;SDS011;66443;49.122;8.346;2023-02-28T00:10:42;3.10;;;2.77;;
77384;SDS011;66443;49.122;8.346;2023-02-28T00:13:07;5.30;;;4.40;;
77384;SDS011;66443;49.122;8.346;2023-02-28T00:15:33;3.10;;;2.73;;
77384;SDS011;66443;49.122;8.346;2023-02-28T00:17:58;2.90;;;2.70;;
77384;SDS011;66443;49.122;8.346;2023-02-28T00:20:24;3.57;;;3.23;;
77384;SDS011;66443;49.122;8.346;2023-02-28T00:22:50;3.43;;;2.57;;
77384;SDS011;66443;49.122;8.346;2023-02-28T00:25:17;2.77;;;2.57;;
77384;SDS011;66443;49.122;8.346;2023-02-28T00:27:42;3.20;;;2.90;;
77384;SDS011;66443;49.122;8.346;2023-02-28T00:30:09;3.17;;;2.87;;
77384;SDS011;66443;49.122;8.346;2023-02-28T00:32:35;4.90;;;2.53;;
77384;SDS011;66443;49.122;8.346;2023-02-28T00:35:00;2.93;;;2.60;;
77384;SDS011;66443;49.122;8.346;2023-02-28T00:37:26;3.10;;;2.63;;
77384;SDS011;66443;49.122;8.346;2023-02-28T00:39:51;2.53;;;2.33;;
77384;SDS011;66443;49.122;8.346;2023-02-28T00:42:16;2.33;;;1.90;;
77384;SDS011;66443;49.122;8.346;2023-02-28T00:44:41;3.13;;;2.20;;
77384;SDS011;66443;49.122;8.346;2023-02-28T00:47:06;7.47;;;2.90;;
77384;SDS011;66443;49.122;8.346;2023-02-28T00:49:32;2.77;;;2.40;;
77384;SDS011;66443;49.122;8.346;2023-02-28T00:51:57;3.30;;;3.00;;
77384;SDS011;66443;49.122;8.346;2023-02-28T00:54:23;3.47;;;2.97;;
77384;SDS011;66443;49.122;8.346;2023-02-28T00:56:48;3.07;;;2.73;;
77384;SDS011;66443;49.122;8.346;2023-02-28T00:59:14;5.40;;;3.07;;
77384;SDS011;66443;49.122;8.346;2023-02-28T01:01:39;3.30;;;2.97;;
77384;SDS011;66443;49.122;8.346;2023-02-28T01:04:05;3.50;;;2.97;;
77384;SDS011;66443;49.122;8.346;2023-02-28T01:06:30;4.33;;;2.83;;
77384;SDS011;66443;49.122;8.346;2023-02-28T01:08:56;3.43;;;2.63;;
77384;SDS011;66443;49.122;8.346;2023-02-28T01:11:21;2.30;;;2.10;;
77384;SDS011;66443;49.122;8.346;2023-02-28T01:13:46;2.97;;;2.67;;
77384;SDS011;66443;49.122;8.346;2023-02-28T01:16:12;2.70;;;2.40;;
77384;SDS011;66443;49.122;8.346;2023-02-28T01:18:37;3.10;;;2.80;;
77384;SDS011;66443;49.122;8.346;2023-02-28T01:21:04;2.87;;;2.47;;
77384;SDS011;66443;49.122;8.346;2023-02-28T01:23:29;3.40;;;2.30;;
77384;SDS011;66443;49.122;8.346;2023-02-28T01:25:54;2.07;;;1.87;;
77384;SDS011;66443;49.122;8.346;2023-02-28T01:28:20;2.80;;;2.60;;
77384;SDS011;66443;49.122;8.346;2023-02-28T01:30:48;2.90;;;2.30;;
77384;SDS011;66443;49.122;8.346;2023-02-28T01:33:14;3.30;;;3.00;;
77384;SDS011;66443;49.122;8.346;2023-02-28T01:35:39;3.03;;;2.63;;
77384;SDS011;66443;49.122;8.346;2023-02-28T01:38:04;3.03;;;2.70;;
77384;SDS011;66443;49.122;8.346;2023-02-28T01:40:29;4.23;;;3.50;;
77384;SDS011;66443;49.122;8.346;2023-02-28T01:42:54;3.07;;;2.57;;
77384;SDS011;66443;49.122;8.346;2023-02-28T01:45:22;3.30;;;3.00;;
77384;SDS011;66443;49.122;8.346;2023-02-28T01:47:49;2.90;;;2.60;;
77384;SDS011;66443;49.122;8.346;2023-02-28T01:50:19;2.97;;;2.67;;
77384;SDS011;66443;49.122;8.346;2023-02-28T01:52:45;2.97;;;2.70;;
77384;SDS011;66443;49.122;8.346;2023-02-28T01:55:12;2.73;;;2.53;;
77384;SDS011;66443;49.122;8.346;2023-02-28T01:57:38;3.13;;;2.80;;
77384;SDS011;66443;49.122;8.346;2023-02-28T02:00:08;2.80;;;2.47;;
77384;SDS011;66443;49.122;8.346;2023-02-28T02:02:34;5.17;;;3.20;;
77384;SDS011;66443;49.122;8.346;2023-02-28T02:05:04;2.67;;;2.47;;
77384;SDS011;66443;49.122;8.346;2023-02-28T02:07:30;4.27;;;3.00;;
77384;SDS011;66443;49.122;8.346;2023-02-28T02:10:01;3.17;;;2.87;;
77384;SDS011;66443;49.122;8.346;2023-02-28T02:12:38;3.07;;;2.77;;
77384;SDS011;66443;49.122;8.346;2023-02-28T02:15:11;2.77;;;2.40;;
77384;SDS011;66443;49.122;8.346;2023-02-28T02:17:39;3.33;;;3.03;;
77384;SDS011;66443;49.122;8.346;2023-02-28T02:27:47;4.57;;;3.13;;
77384;SDS011;66443;49.122;8.346;2023-02-28T02:33:05;3.73;;;3.40;;
77384;SDS011;66443;49.122;8.346;2023-02-28T02:38:18;3.23;;;3.00;;
77384;SDS011;66443;49.122;8.346;2023-02-28T02:40:55;4.50;;;2.67;;
77384;SDS011;66443;49.122;8.346;2023-02-28T02:46:28;3.50;;;2.80;;
77384;SDS011;66443;49.122;8.346;2023-02-28T02:48:50;3.87;;;3.17;;
77384;SDS011;66443;49.122;8.346;2023-02-28T02:51:18;4.60;;;3.57;;
77384;SDS011;66443;49.122;8.346;2023-02-28T02:54:00;4.57;;;3.60;;
77384;SDS011;66443;49.122;8.346;2023-02-28T02:56:28;4.20;;;3.43;;
77384;SDS011;66443;49.122;8.346;2023-02-28T02:58:54;3.53;;;2.60;;
77384;SDS011;66443;49.122;8.346;2023-02-28T03:01:22;3.57;;;3.27;;
77384;SDS011;66443;49.122;8.346;2023-02-28T03:03:56;5.53;;;3.70;;
77384;SDS011;66443;49.122;8.346;2023-02-28T03:06:22;4.63;;;3.33;;
77384;SDS011;66443;49.122;8.346;2023-02-28T03:08:47;3.23;;;2.83;;
77384;SDS011;66443;49.122;8.346;2023-02-28T03:11:14;6.33;;;3.60;;
77384;SDS011;66443;49.122;8.346;2023-02-28T03:13:47;5.30;;;3.20;;
77384;SDS011;66443;49.122;8.346;2023-02-28T03:18:42;7.10;;;2.90;;
77384;SDS011;66443;49.122;8.346;2023-02-28T03:23:42;3.72;;;3.35;;
77384;SDS011;66443;49.122;8.346;2023-02-28T03:26:21;4.00;;;3.13;;
77384;SDS011;66443;49.122;8.346;2023-02-28T03:28:58;5.57;;;3.30;;
77384;SDS011;66443;49.122;8.346;2023-02-28T03:31:28;3.40;;;3.10;;
77384;SDS011;66443;49.122;8.346;2023-02-28T03:34:06;5.87;;;3.67;;
77384;SDS011;66443;49.122;8.346;2023-02-28T03:36:34;4.77;;;3.90;;
77384;SDS011;66443;49.122;8.346;2023-02-28T03:39:07;3.90;;;3.23;;
77384;SDS011;66443;49.122;8.346;2023-02-28T03:41:38;3.90;;;3.50;;
77384;SDS011;66443;49.122;8.346;2023-02-28T03:44:15;5.57;;;3.70;;
77384;SDS011;66443;49.122;8.346;2023-02-28T03:46:43;7.00;;;4.10;;
77384;SDS011;66443;49.122;8.346;2023-02-28T03:49:17;7.60;;;3.70;;
77384;SDS011;66443;49.122;8.346;2023-02-28T03:51:43;5.20;;;2.97;;
77384;SDS011;66443;49.122;8.346;2023-02-28T03:54:11;3.60;;;3.30;;
77384;SDS011;66443;49.122;8.346;2023-02-28T03:56:38;4.00;;;3.50;;
77384;SDS011;66443;49.122;8.346;2023-02-28T03:59:13;4.40;;;3.07;;
77384;SDS011;66443;49.122;8.346;2023-02-28T04:01:43;4.60;;;4.20;;
77384;SDS011;66443;49.122;8.346;2023-02-28T04:04:09;4.17;;;3.77;;
77384;SDS011;66443;49.122;8.346;2023-02-28T04:06:35;5.13;;;3.63;;
77384;SDS011;66443;49.122;8.346;2023-02-28T04:09:02;5.10;;;4.17;;
77384;SDS011;66443;49.122;8.346;2023-02-28T04:11:50;5.13;;;3.87;;
77384;SDS011;66443;49.122;8.346;2023-02-28T04:14:18;4.90;;;3.63;;
77384;SDS011;66443;49.122;8.346;2023-02-28T04:16:43;5.57;;;3.77;;
77384;SDS011;66443;49.122;8.346;2023-02-28T04:19:10;6.20;;;4.03;;
77384;SDS011;66443;49.122;8.346;2023-02-28T04:21:36;4.13;;;3.73;;
77384;SDS011;66443;49.122;8.346;2023-02-28T04:24:06;4.13;;;3.60;;
77384;SDS011;66443;49.122;8.346;2023-02-28T04:26:31;5.27;;;3.37;;
77384;SDS011;66443;49.122;8.346;2023-02-28T04:28:57;4.57;;;3.93;;
77384;SDS011;66443;49.122;8.346;2023-02-28T04:31:23;5.57;;;3.50;;
77384;SDS011;66443;49.122;8.346;2023-02-28T04:33:48;5.73;;;3.30;;
77384;SDS011;66443;49.122;8.346;2023-02-28T04:36:13;4.67;;;3.50;;
77384;SDS011;66443;49.122;8.346;2023-02-28T04:38:39;3.67;;;3.33;;
77384;SDS011;66443;49.122;8.346;2023-02-28T04:41:05;4.43;;;3.93;;
77384;SDS011;66443;49.122;8.346;2023-02-28T04:43:30;7.90;;;5.63;;
77384;SDS011;66443;49.122;8.346;2023-02-28T04:45:56;4.53;;;4.13;;
77384;SDS011;66443;49.122;8.346;2023-02-28T04:48:25;6.03;;;5.23;;
77384;SDS011;66443;49.122;8.346;2023-02-28T04:50:51;6.50;;;5.00;;
77384;SDS011;66443;49.122;8.346;2023-02-28T04:53:16;6.00;;;5.40;;
77384;SDS011;66443;49.122;8.346;2023-02-28T04:55:42;4.67;;;4.27;;
77384;SDS011;66443;49.122;8.346;2023-02-28T04:58:07;5.97;;;5.33;;
77384;SDS011;66443;49.122;8.346;2023-02-28T05:00:32;4.37;;;3.90;;
77384;SDS011;66443;49.122;8.346;2023-02-28T05:02:57;6.60;;;5.40;;
77384;SDS011;66443;49.122;8.346;2023-02-28T05:05:22;7.43;;;5.17;;
77384;SDS011;66443;49.122;8.346;2023-02-28T05:07:48;5.30;;;4.50;;
77384;SDS011;66443;49.122;8.346;2023-02-28T05:10:13;5.95;;;4.43;;
77384;SDS011;66443;49.122;8.346;2023-02-28T05:12:38;7.53;;;5.73;;
77384;SDS011;66443;49.122;8.346;2023-02-28T05:15:04;4.33;;;3.93;;
77384;SDS011;66443;49.122;8.346;2023-02-28T05:17:30;4.20;;;3.80;;
77384;SDS011;66443;49.122;8.346;2023-02-28T05:19:55;5.80;;;4.67;;
77384;SDS011;66443;49.122;8.346;2023-02-28T05:22:20;4.60;;;3.97;;
77384;SDS011;66443;49.122;8.346;2023-02-28T05:24:45;4.77;;;4.00;;
77384;SDS011;66443;49.122;8.346;2023-02-28T05:27:10;3.77;;;3.47;;
77384;SDS011;66443;49.122;8.346;2023-02-28T05:29:36;4.70;;;4.27;;
77384;SDS011;66443;49.122;8.346;2023-02-28T05:32:06;4.00;;;3.67;;
77384;SDS011;66443;49.122;8.346;2023-02-28T05:34:31;3.83;;;3.43;;
77384;SDS011;66443;49.122;8.346;2023-02-28T05:36:57;5.17;;;4.60;;
77384;SDS011;66443;49.122;8.346;2023-02-28T05:39:22;4.57;;;4.17;;
77384;SDS011;66443;49.122;8.346;2023-02-28T05:41:47;5.47;;;4.73;;
77384;SDS011;66443;49.122;8.346;2023-02-28T05:44:12;6.07;;;4.73;;
77384;SDS011;66443;49.122;8.346;2023-02-28T05:46:37;7.50;;;4.40;;
77384;SDS011;66443;49.122;8.346;2023-02-28T05:49:03;6.13;;;4.57;;
77384;SDS011;66443;49.122;8.346;2023-02-28T05:51:28;5.03;;;4.47;;
77384;SDS011;66443;49.122;8.346;2023-02-28T05:53:53;5.17;;;4.07;;
77384;SDS011;66443;49.122;8.346;2023-02-28T05:56:19;4.47;;;4.03;;
77384;SDS011;66443;49.122;8.346;2023-02-28T05:58:44;4.80;;;4.03;;
77384;SDS011;66443;49.122;8.346;2023-02-28T06:01:23;5.97;;;5.37;;
77384;SDS011;66443;49.122;8.346;2023-02-28T06:03:49;5.40;;;4.83;;
77384;SDS011;66443;49.122;8.346;2023-02-28T06:06:14;14.87;;;3.43;;
77384;SDS011;66443;49.122;8.346;2023-02-28T06:08:40;7.40;;;4.20;;
77384;SDS011;66443;49.122;8.346;2023-02-28T06:11:05;5.77;;;4.97;;
77384;SDS011;66443;49.122;8.346;2023-02-28T06:13:31;7.70;;;5.07;;
77384;SDS011;66443;49.122;8.346;2023-02-28T06:15:56;6.47;;;5.00;;
77384;SDS011;66443;49.122;8.346;2023-02-28T06:18:25;4.47;;;3.90;;
77384;SDS011;66443;49.122;8.346;2023-02-28T06:20:53;5.63;;;5.07;;
77384;SDS011;66443;49.122;8.346;2023-02-28T06:23:19;5.23;;;4.73;;
77384;SDS011;66443;49.122;8.346;2023-02-28T06:25:45;5.20;;;4.70;;
77384;SDS011;66443;49.122;8.346;2023-02-28T06:28:10;6.77;;;4.63;;
77384;SDS011;66443;49.122;8.346;2023-02-28T06:30:36;5.30;;;4.77;;
77384;SDS011;66443;49.122;8.346;2023-02-28T06:33:01;6.53;;;4.60;;
77384;SDS011;66443;49.122;8.346;2023-02-28T06:35:27;7.17;;;3.60;;
77384;SDS011;66443;49.122;8.346;2023-02-28T06:37:52;4.60;;;4.20;;
77384;SDS011;66443;49.122;8.346;2023-02-28T06:40:17;5.23;;;4.77;;
77384;SDS011;66443;49.122;8.346;2023-02-28T06:42:42;5.00;;;4.50;;
77384;SDS011;66443;49.122;8.346;2023-02-28T06:45:08;4.93;;;4.00;;
77384;SDS011;66443;49.122;8.346;2023-02-28T06:47:34;3.17;;;2.83;;
77384;SDS011;66443;49.122;8.346;2023-02-28T06:49:59;9.77;;;4.60;;
77384;SDS011;66443;49.122;8.346;2023-02-28T06:52:26;5.73;;;4.23;;
77384;SDS011;66443;49.122;8.346;2023-02-28T06:54:51;6.47;;;4.73;;
77384;SDS011;66443;49.122;8.346;2023-02-28T06:57:24;7.03;;;5.37;;
77384;SDS011;66443;49.122;8.346;2023-02-28T06:59:50;4.13;;;3.73;;
77384;SDS011;66443;49.122;8.346;2023-02-28T07:02:15;5.13;;;4.63;;
77384;SDS011;66443;49.122;8.346;2023-02-28T07:04:40;6.57;;;4.80;;
77384;SDS011;66443;49.122;8.346;2023-02-28T07:07:08;6.40;;;5.50;;
77384;SDS011;66443;49.122;8.346;2023-02-28T07:09:33;5.50;;;4.93;;
77384;SDS011;66443;49.122;8.346;2023-02-28T07:11:59;5.93;;;4.83;;
77384;SDS011;66443;49.122;8.346;2023-02-28T07:14:25;6.17;;;4.73;;
77384;SDS011;66443;49.122;8.346;2023-02-28T07:16:51;5.80;;;5.20;;
77384;SDS011;66443;49.122;8.346;2023-02-28T07:19:16;5.83;;;5.07;;
77384;SDS011;66443;49.122;8.346;2023-02-28T07:21:41;16.70;;;8.73;;
77384;SDS011;66443;49.122;8.346;2023-02-28T07:24:06;15.57;;;9.43;;
77384;SDS011;66443;49.122;8.346;2023-02-28T07:26:31;5.73;;;4.83;;
77384;SDS011;66443;49.122;8.346;2023-02-28T07:28:59;8.43;;;7.20;;
77384;SDS011;66443;49.122;8.346;2023-02-28T07:31:24;23.33;;;12.47;;
77384;SDS011;66443;49.122;8.346;2023-02-28T07:33:49;8.87;;;6.13;;
77384;SDS011;66443;49.122;8.346;2023-02-28T07:36:15;7.27;;;5.27;;
77384;SDS011;66443;49.122;8.346;2023-02-28T07:38:42;9.40;;;7.00;;
77384;SDS011;66443;49.122;8.346;2023-02-28T07:41:08;8.70;;;6.67;;
77384;SDS011;66443;49.122;8.346;2023-02-28T07:43:34;6.17;;;5.57;;
77384;SDS011;66443;49.122;8.346;2023-02-28T07:46:09;6.40;;;5.80;;
77384;SDS011;66443;49.122;8.346;2023-02-28T07:48:35;5.30;;;4.77;;
77384;SDS011;66443;49.122;8.346;2023-02-28T07:51:00;5.30;;;4.67;;
77384;SDS011;66443;49.122;8.346;2023-02-28T07:53:26;5.83;;;5.30;;
77384;SDS011;66443;49.122;8.346;2023-02-28T07:55:58;6.43;;;5.43;;
77384;SDS011;66443;49.122;8.346;2023-02-28T07:58:24;6.00;;;5.40;;
77384;SDS011;66443;49.122;8.346;2023-02-28T08:00:49;6.07;;;5.47;;
77384;SDS011;66443;49.122;8.346;2023-02-28T08:03:15;9.07;;;7.17;;
77384;SDS011;66443;49.122;8.346;2023-02-28T08:05:40;4.70;;;4.30;;
77384;SDS011;66443;49.122;8.346;2023-02-28T08:08:06;5.43;;;4.50;;
77384;SDS011;66443;49.122;8.346;2023-02-28T08:10:31;13.23;;;7.93;;
77384;SDS011;66443;49.122;8.346;2023-02-28T08:12:57;19.93;;;13.00;;
77384;SDS011;66443;49.122;8.346;2023-02-28T08:15:22;103.20;;;29.67;;
77384;SDS011;66443;49.122;8.346;2023-02-28T08:17:47;76.67;;;24.63;;
77384;SDS011;66443;49.122;8.346;2023-02-28T08:20:12;18.13;;;10.37;;
77384;SDS011;66443;49.122;8.346;2023-02-28T08:22:38;15.47;;;9.60;;
77384;SDS011;66443;49.122;8.346;2023-02-28T08:25:03;6.60;;;6.00;;
77384;SDS011;66443;49.122;8.346;2023-02-28T08:27:28;6.77;;;5.37;;
77384;SDS011;66443;49.122;8.346;2023-02-28T08:29:53;31.40;;;19.77;;
77384;SDS011;66443;49.122;8.346;2023-02-28T08:32:19;8.80;;;7.90;;
77384;SDS011;66443;49.122;8.346;2023-02-28T08:34:44;9.87;;;8.37;;
77384;SDS011;66443;49.122;8.346;2023-02-28T08:37:09;6.57;;;5.07;;
77384;SDS011;66443;49.122;8.346;2023-02-28T08:39:35;8.07;;;6.30;;
77384;SDS011;66443;49.122;8.346;2023-02-28T08:42:00;5.97;;;5.37;;
77384;SDS011;66443;49.122;8.346;2023-02-28T08:44:26;6.63;;;5.93;;
77384;SDS011;66443;49.122;8.346;2023-02-28T08:46:52;6.60;;;5.90;;
77384;SDS011;66443;49.122;8.346;2023-02-28T08:49:17;6.13;;;5.53;;
77384;SDS011;66443;49.122;8.346;2023-02-28T08:51:43;6.63;;;5.97;;
77384;SDS011;66443;49.122;8.346;2023-02-28T08:54:08;5.97;;;5.37;;
77384;SDS011;66443;49.122;8.346;2023-02-28T08:56:33;8.20;;;7.50;;
77384;SDS011;66443;49.122;8.346;2023-02-28T08:58:59;7.03;;;6.10;;
77384;SDS011;66443;49.122;8.346;2023-02-28T09:01:25;8.23;;;7.45;;
77384;SDS011;66443;49.122;8.346;2023-02-28T09:03:52;7.03;;;6.43;;
77384;SDS011;66443;49.122;8.346;2023-02-28T09:06:18;7.43;;;6.53;;
77384;SDS011;66443;49.122;8.346;2023-02-28T09:08:43;10.33;;;9.37;;
77384;SDS011;66443;49.122;8.346;2023-02-28T09:11:09;7.20;;;6.50;;
77384;SDS011;66443;49.122;8.346;2023-02-28T09:13:34;6.47;;;5.87;;
77384;SDS011;66443;49.122;8.346;2023-02-28T09:16:00;7.27;;;6.40;;
77384;SDS011;66443;49.122;8.346;2023-02-28T09:18:26;8.83;;;6.23;;
77384;SDS011;66443;49.122;8.346;2023-02-28T09:20:51;6.87;;;5.47;;
77384;SDS011;66443;49.122;8.346;2023-02-28T09:23:16;6.20;;;5.70;;
77384;SDS011;66443;49.122;8.346;2023-02-28T09:25:48;6.87;;;6.17;;
77384;SDS011;66443;49.122;8.346;2023-02-28T09:28:14;7.93;;;7.07;;
77384;SDS011;66443;49.122;8.346;2023-02-28T09:30:46;5.53;;;4.83;;
77384;SDS011;66443;49.122;8.346;2023-02-28T09:33:12;9.10;;;6.47;;
77384;SDS011;66443;49.122;8.346;2023-02-28T09:35:38;7.73;;;6.37;;
77384;SDS011;66443;49.122;8.346;2023-02-28T09:38:03;7.13;;;6.23;;
77384;SDS011;66443;49.122;8.346;2023-02-28T09:40:28;6.93;;;5.77;;
77384;SDS011;66443;49.122;8.346;2023-02-28T09:42:54;5.93;;;5.03;;
77384;SDS011;66443;49.122;8.346;2023-02-28T09:45:28;7.33;;;6.50;;
77384;SDS011;66443;49.122;8.346;2023-02-28T09:47:56;8.47;;;7.57;;
77384;SDS011;66443;49.122;8.346;2023-02-28T09:50:29;9.17;;;7.07;;
77384;SDS011;66443;49.122;8.346;2023-02-28T09:52:57;8.37;;;6.60;;
77384;SDS011;66443;49.122;8.346;2023-02-28T09:57:54;8.97;;;6.90;;
77384;SDS011;66443;49.122;8.346;2023-02-28T10:05:15;7.60;;;6.90;;
77384;SDS011;66443;49.122;8.346;2023-02-28T10:10:15;8.03;;;6.50;;
77384;SDS011;66443;49.122;8.346;2023-02-28T10:12:44;7.50;;;6.73;;
77384;SDS011;66443;49.122;8.346;2023-02-28T10:15:12;7.57;;;6.57;;
77384;SDS011;66443;49.122;8.346;2023-02-28T10:17:39;7.37;;;6.00;;
77384;SDS011;66443;49.122;8.346;2023-02-28T10:20:12;7.93;;;7.10;;
77384;SDS011;66443;49.122;8.346;2023-02-28T10:25:18;7.00;;;6.30;;
77384;SDS011;66443;49.122;8.346;2023-02-28T10:27:43;7.50;;;6.80;;
77384;SDS011;66443;49.122;8.346;2023-02-28T10:30:09;7.30;;;6.60;;
77384;SDS011;66443;49.122;8.346;2023-02-28T10:32:35;6.90;;;6.23;;
77384;SDS011;66443;49.122;8.346;2023-02-28T10:35:09;9.43;;;5.97;;
77384;SDS011;66443;49.122;8.346;2023-02-28T10:37:42;6.77;;;6.13;;
77384;SDS011;66443;49.122;8.346;2023-02-28T10:40:25;7.33;;;6.63;;
77384;SDS011;66443;49.122;8.346;2023-02-28T10:45:22;8.03;;;6.70;;
77384;SDS011;66443;49.122;8.346;2023-02-28T10:47:49;7.50;;;6.70;;
77384;SDS011;66443;49.122;8.346;2023-02-28T10:52:52;7.37;;;6.77;;
77384;SDS011;66443;49.122;8.346;2023-02-28T10:55:22;11.40;;;10.20;;
77384;SDS011;66443;49.122;8.346;2023-02-28T10:57:48;10.60;;;8.93;;
77384;SDS011;66443;49.122;8.346;2023-02-28T11:00:16;7.47;;;6.70;;
77384;SDS011;66443;49.122;8.346;2023-02-28T11:02:41;31.20;;;19.53;;
77384;SDS011;66443;49.122;8.346;2023-02-28T11:05:30;29.83;;;17.70;;
77384;SDS011;66443;49.122;8.346;2023-02-28T11:08:04;9.23;;;8.33;;
77384;SDS011;66443;49.122;8.346;2023-02-28T11:10:30;6.87;;;6.27;;
77384;SDS011;66443;49.122;8.346;2023-02-28T11:12:59;13.67;;;10.17;;
77384;SDS011;66443;49.122;8.346;2023-02-28T11:15:28;88.83;;;39.73;;
77384;SDS011;66443;49.122;8.346;2023-02-28T11:20:26;19.00;;;13.57;;
77384;SDS011;66443;49.122;8.346;2023-02-28T11:22:52;12.93;;;10.27;;
77384;SDS011;66443;49.122;8.346;2023-02-28T11:25:38;9.97;;;8.97;;
77384;SDS011;66443;49.122;8.346;2023-02-28T11:28:04;27.23;;;19.87;;
77384;SDS011;66443;49.122;8.346;2023-02-28T11:30:35;7.13;;;6.43;;
77384;SDS011;66443;49.122;8.346;2023-02-28T11:35:45;8.93;;;8.13;;
77384;SDS011;66443;49.122;8.346;2023-02-28T11:38:11;8.33;;;7.63;;
77384;SDS011;66443;49.122;8.346;2023-02-28T11:40:55;7.93;;;7.20;;
77384;SDS011;66443;49.122;8.346;2023-02-28T11:46:51;8.93;;;7.70;;
77384;SDS011;66443;49.122;8.346;2023-02-28T11:49:02;8.23;;;7.43;;
77384;SDS011;66443;49.122;8.346;2023-02-28T11:52:19;11.10;;;7.53;;
77384;SDS011;66443;49.122;8.346;2023-02-28T11:57:00;7.33;;;6.73;;
77384;SDS011;66443;49.122;8.346;2023-02-28T12:04:23;8.25;;;7.47;;
77384;SDS011;66443;49.122;8.346;2023-02-28T12:12:03;7.80;;;7.10;;
77384;SDS011;66443;49.122;8.346;2023-02-28T12:22:10;8.37;;;7.57;;
77384;SDS011;66443;49.122;8.346;2023-02-28T12:24:39;8.67;;;7.87;;
77384;SDS011;66443;49.122;8.346;2023-02-28T12:27:10;7.70;;;6.90;;
77384;SDS011;66443;49.122;8.346;2023-02-28T12:34:41;7.57;;;6.77;;
77384;SDS011;66443;49.122;8.346;2023-02-28T12:37:09;9.50;;;8.03;;
77384;SDS011;66443;49.122;8.346;2023-02-28T12:39:36;10.75;;;9.85;;
77384;SDS011;66443;49.122;8.346;2023-02-28T12:42:07;8.93;;;8.13;;
77384;SDS011;66443;49.122;8.346;2023-02-28T12:44:36;9.70;;;8.90;;
77384;SDS011;66443;49.122;8.346;2023-02-28T12:47:14;8.50;;;7.80;;
77384;SDS011;66443;49.122;8.346;2023-02-28T12:49:46;7.67;;;6.97;;
77384;SDS011;66443;49.122;8.346;2023-02-28T12:52:14;7.50;;;6.80;;
77384;SDS011;66443;49.122;8.346;2023-02-28T12:57:18;12.73;;;10.07;;
77384;SDS011;66443;49.122;8.346;2023-02-28T12:59:56;9.13;;;8.33;;
77384;SDS011;66443;49.122;8.346;2023-02-28T13:08:03;27.40;;;16.33;;
77384;SDS011;66443;49.122;8.346;2023-02-28T13:10:39;25.47;;;15.10;;
77384;SDS011;66443;49.122;8.346;2023-02-28T13:13:05;11.27;;;10.13;;
77384;SDS011;66443;49.122;8.346;2023-02-28T13:15:31;13.20;;;9.27;;
77384;SDS011;66443;49.122;8.346;2023-02-28T13:18:00;32.03;;;17.07;;
77384;SDS011;66443;49.122;8.346;2023-02-28T13:20:26;11.73;;;10.60;;
77384;SDS011;66443;49.122;8.346;2023-02-28T13:22:54;10.67;;;9.77;;
77384;SDS011;66443;49.122;8.346;2023-02-28T13:27:45;9.10;;;8.30;;
77384;SDS011;66443;49.122;8.346;2023-02-28T13:35:43;14.53;;;12.63;;
77384;SDS011;66443;49.122;8.346;2023-02-28T13:38:12;13.10;;;11.80;;
77384;SDS011;66443;49.122;8.346;2023-02-28T13:40:39;11.83;;;10.73;;
77384;SDS011;66443;49.122;8.346;2023-02-28T13:43:07;9.87;;;8.87;;
77384;SDS011;66443;49.122;8.346;2023-02-28T13:45:33;13.27;;;11.97;;
77384;SDS011;66443;49.122;8.346;2023-02-28T13:48:04;9.93;;;9.00;;
77384;SDS011;66443;49.122;8.346;2023-02-28T13:50:34;10.33;;;9.33;;
77384;SDS011;66443;49.122;8.346;2023-02-28T13:53:18;9.27;;;8.47;;
77384;SDS011;66443;49.122;8.346;2023-02-28T13:55:52;14.93;;;9.13;;
77384;SDS011;66443;49.122;8.346;2023-02-28T13:58:27;9.77;;;8.87;;
77384;SDS011;66443;49.122;8.346;2023-02-28T14:03:36;8.70;;;8.00;;
77384;SDS011;66443;49.122;8.346;2023-02-28T14:08:54;8.63;;;7.90;;
77384;SDS011;66443;49.122;8.346;2023-02-28T14:11:24;8.93;;;8.23;;
77384;SDS011;66443;49.122;8.346;2023-02-28T14:13:49;10.43;;;9.53;;
77384;SDS011;66443;49.122;8.346;2023-02-28T14:16:20;8.67;;;7.97;;
77384;SDS011;66443;49.122;8.346;2023-02-28T14:19:32;9.20;;;8.40;;
77384;SDS011;66443;49.122;8.346;2023-02-28T14:21:35;8.73;;;8.07;;
77384;SDS011;66443;49.122;8.346;2023-02-28T14:24:03;10.80;;;9.20;;
77384;SDS011;66443;49.122;8.346;2023-02-28T14:31:44;32.05;;;19.27;;
77384;SDS011;66443;49.122;8.346;2023-02-28T14:36:42;92.30;;;46.13;;
77384;SDS011;66443;49.122;8.346;2023-02-28T14:39:12;18.90;;;16.27;;
77384;SDS011;66443;49.122;8.346;2023-02-28T14:41:39;11.17;;;10.17;;
77384;SDS011;66443;49.122;8.346;2023-02-28T14:44:18;9.67;;;8.80;;
77384;SDS011;66443;49.122;8.346;2023-02-28T14:46:45;9.70;;;8.13;;
77384;SDS011;66443;49.122;8.346;2023-02-28T14:49:52;9.23;;;8.43;;
77384;SDS011;66443;49.122;8.346;2023-02-28T14:52:03;10.13;;;9.33;;
77384;SDS011;66443;49.122;8.346;2023-02-28T14:54:30;9.10;;;8.40;;
77384;SDS011;66443;49.122;8.346;2023-02-28T14:56:56;10.07;;;9.20;;
77384;SDS011;66443;49.122;8.346;2023-02-28T14:59:25;15.83;;;9.27;;
77384;SDS011;66443;49.122;8.346;2023-02-28T15:01:51;9.63;;;8.83;;
77384;SDS011;66443;49.122;8.346;2023-02-28T15:04:24;9.80;;;9.00;;
77384;SDS011;66443;49.122;8.346;2023-02-28T15:09:44;10.30;;;9.33;;
77384;SDS011;66443;49.122;8.346;2023-02-28T15:12:13;9.30;;;8.50;;
77384;SDS011;66443;49.122;8.346;2023-02-28T15:14:42;11.23;;;10.13;;
77384;SDS011;66443;49.122;8.346;2023-02-28T15:17:08;9.43;;;8.53;;
77384;SDS011;66443;49.122;8.346;2023-02-28T15:19:37;10.63;;;9.63;;
77384;SDS011;66443;49.122;8.346;2023-02-28T15:22:07;10.67;;;9.77;;
77384;SDS011;66443;49.122;8.346;2023-02-28T15:27:03;9.70;;;8.80;;
77384;SDS011;66443;49.122;8.346;2023-02-28T15:29:29;9.63;;;8.67;;
77384;SDS011;66443;49.122;8.346;2023-02-28T15:31:56;9.93;;;8.93;;
77384;SDS011;66443;49.122;8.346;2023-02-28T15:34:43;9.83;;;8.93;;
77384;SDS011;66443;49.122;8.346;2023-02-28T15:39:51;8.97;;;8.07;;
77384;SDS011;66443;49.122;8.346;2023-02-28T15:42:18;9.30;;;8.60;;
77384;SDS011;66443;49.122;8.346;2023-02-28T15:44:43;9.63;;;8.73;;
77384;SDS011;66443;49.122;8.346;2023-02-28T15:47:22;9.80;;;8.90;;
77384;SDS011;66443;49.122;8.346;2023-02-28T15:49:58;9.77;;;8.80;;
77384;SDS011;66443;49.122;8.346;2023-02-28T15:52:34;9.50;;;8.50;;
77384;SDS011;66443;49.122;8.346;2023-02-28T15:55:03;10.13;;;8.93;;
77384;SDS011;66443;49.122;8.346;2023-02-28T15:57:32;11.37;;;9.30;;
77384;SDS011;66443;49.122;8.346;2023-02-28T16:00:00;8.53;;;7.73;;
77384;SDS011;66443;49.122;8.346;2023-02-28T16:02:35;10.87;;;9.90;;
77384;SDS011;66443;49.122;8.346;2023-02-28T16:07:36;9.00;;;8.17;;
77384;SDS011;66443;49.122;8.346;2023-02-28T16:10:01;9.90;;;8.90;;
77384;SDS011;66443;49.122;8.346;2023-02-28T16:12:27;10.33;;;9.33;;
77384;SDS011;66443;49.122;8.346;2023-02-28T16:14:54;8.67;;;7.87;;
77384;SDS011;66443;49.122;8.346;2023-02-28T16:17:20;10.37;;;9.37;;
77384;SDS011;66443;49.122;8.346;2023-02-28T16:19:46;8.87;;;7.97;;
77384;SDS011;66443;49.122;8.346;2023-02-28T16:22:11;10.50;;;9.60;;
77384;SDS011;66443;49.122;8.346;2023-02-28T16:24:36;9.77;;;8.85;;
77384;SDS011;66443;49.122;8.346;2023-02-28T16:27:03;9.03;;;8.17;;
77384;SDS011;66443;49.122;8.346;2023-02-28T16:29:30;9.30;;;8.40;;
77384;SDS011;66443;49.122;8.346;2023-02-28T16:31:55;9.47;;;8.57;;
77384;SDS011;66443;49.122;8.346;2023-02-28T16:34:21;10.00;;;9.00;;
77384;SDS011;66443;49.122;8.346;2023-02-28T16:36:47;9.07;;;8.17;;
77384;SDS011;66443;49.122;8.346;2023-02-28T16:39:12;9.93;;;8.93;;
77384;SDS011;66443;49.122;8.346;2023-02-28T16:41:37;10.00;;;9.17;;